createdAt,value
2024-05-09T00:02:08.657Z,97212.47
2024-05-09T00:04:36.186Z,97219.03
2024-05-09T00:07:12.383Z,97222.81
2024-05-09T00:09:39.584Z,97211.59
2024-05-09T00:12:15.904Z,97219.72
2024-05-09T00:14:52.193Z,97219.91
2024-05-09T00:17:19.486Z,97210.69
2024-05-09T00:19:46.950Z,97218.81
2024-05-09T00:22:23.236Z,97206.44
2024-05-09T00:24:50.520Z,97215.63
2024-05-09T00:27:17.852Z,97215.22
2024-05-09T00:29:44.981Z,97209.72
2024-05-09T00:32:21.369Z,97214.13
2024-05-09T00:34:57.772Z,97213.88
2024-05-09T00:37:33.964Z,97212.34
2024-05-09T00:40:18.275Z,97204.97
2024-05-09T00:42:50.123Z,97202.19
2024-05-09T00:45:17.288Z,97206.72
2024-05-09T00:47:44.687Z,97209.81
2024-05-09T00:50:18.976Z,97201.91
2024-05-09T00:52:58.722Z,97205.22
2024-05-09T00:55:25.997Z,97201.91
2024-05-09T00:57:53.339Z,97196.69
2024-05-09T01:00:27.275Z,97198.91
2024-05-09T01:03:13.441Z,97206.34
2024-05-09T01:05:42.097Z,97198.56
2024-05-09T01:08:10.040Z,97194.88
2024-05-09T01:10:37.639Z,97204.09
2024-05-09T01:13:05.116Z,97193.50
2024-05-09T01:15:32.430Z,97193.44
2024-05-09T01:18:08.912Z,97192.69
2024-05-09T01:20:41.539Z,97189.00
2024-05-09T01:23:11.936Z,97205.09
2024-05-09T01:25:48.548Z,97198.19
2024-05-09T01:28:15.796Z,97194.75
2024-05-09T01:30:43.067Z,97194.25
2024-05-09T01:33:11.877Z,97206.03
2024-05-09T01:35:40.179Z,97206.16
2024-05-09T01:38:07.707Z,97206.09
2024-05-09T01:40:44.058Z,97205.44
2024-05-09T01:43:12.095Z,97205.50
2024-05-09T01:45:39.674Z,97207.50
2024-05-09T01:48:16.231Z,97202.06
2024-05-09T01:50:43.841Z,97212.56
2024-05-09T01:53:11.610Z,97206.41
2024-05-09T01:55:39.142Z,97211.94
2024-05-09T01:58:15.381Z,97210.75
2024-05-09T02:00:43.559Z,97207.66
2024-05-09T02:03:14.043Z,97210.25
2024-05-09T02:05:43.933Z,97218.09
2024-05-09T02:08:11.491Z,97215.56
2024-05-09T02:10:48.111Z,97210.22
2024-05-09T02:13:24.595Z,97209.38
2024-05-09T02:16:00.830Z,97208.47
2024-05-09T02:18:28.157Z,97215.09
2024-05-09T02:21:04.527Z,97212.44
2024-05-09T02:23:31.970Z,97221.25
2024-05-09T02:25:59.370Z,97214.41
2024-05-09T02:28:26.748Z,97216.69
2024-05-09T02:30:53.940Z,97217.03
2024-05-09T02:33:30.218Z,97215.22
2024-05-09T02:36:06.616Z,97208.88
2024-05-09T02:38:34.068Z,97211.06
2024-05-09T02:41:10.461Z,97210.88
2024-05-09T02:43:46.763Z,97207.50
2024-05-09T02:46:14.058Z,97212.66
2024-05-09T02:48:50.394Z,97222.09
2024-05-09T02:51:17.803Z,97214.41
2024-05-09T02:53:45.154Z,97207.91
2024-05-09T02:56:21.400Z,97221.75
2024-05-09T02:58:48.733Z,97208.53
2024-05-09T03:01:16.141Z,97208.13
2024-05-09T03:03:43.561Z,97210.97
2024-05-09T03:06:19.832Z,97209.31
2024-05-09T03:08:46.613Z,97210.88
2024-05-09T03:11:13.424Z,97216.03
2024-05-09T03:13:40.279Z,97206.59
2024-05-09T03:16:07.104Z,97209.06
2024-05-09T03:18:33.913Z,97209.41
2024-05-09T03:21:00.953Z,97206.88
2024-05-09T03:23:27.858Z,97205.41
2024-05-09T03:25:54.741Z,97202.03
2024-05-09T03:28:21.531Z,97203.44
2024-05-09T03:30:48.307Z,97202.16
2024-05-09T03:33:15.912Z,97204.53
2024-05-09T03:35:43.052Z,97205.34
2024-05-09T03:38:10.076Z,97206.53
2024-05-09T03:40:36.882Z,97211.75
2024-05-09T03:43:03.629Z,97208.34
2024-05-09T03:45:30.388Z,97208.31
2024-05-09T03:47:57.488Z,97201.94
2024-05-09T03:50:30.169Z,97206.59
2024-05-09T03:53:01.176Z,97210.09
2024-05-09T03:55:28.089Z,97213.13
2024-05-09T03:57:54.868Z,97210.72
2024-05-09T04:00:30.720Z,97210.91
2024-05-09T04:03:04.160Z,97211.63
2024-05-09T04:05:31.527Z,97218.44
2024-05-09T04:07:59.008Z,97220.19
2024-05-09T04:10:35.671Z,97220.19
2024-05-09T04:13:03.598Z,97220.56
2024-05-09T04:15:31.404Z,97225.50
2024-05-09T04:17:59.198Z,97220.47
2024-05-09T04:20:39.220Z,97227.03
2024-05-09T04:23:17.140Z,97226.78
2024-05-09T04:25:54.450Z,97223.38
2024-05-09T04:28:21.782Z,97230.47
2024-05-09T04:30:49.072Z,97237.78
2024-05-09T04:33:16.515Z,97233.59
2024-05-09T04:35:52.820Z,97235.94
2024-05-09T04:38:29.080Z,97238.13
2024-05-09T04:40:56.489Z,97233.13
2024-05-09T04:43:23.635Z,97243.69
2024-05-09T04:45:50.971Z,97236.84
2024-05-09T04:48:18.493Z,97240.97
2024-05-09T04:50:45.984Z,97245.75
2024-05-09T04:53:13.350Z,97239.13
2024-05-09T04:55:49.639Z,97244.34
2024-05-09T04:58:25.871Z,97241.66
2024-05-09T05:00:53.043Z,97237.72
2024-05-09T05:03:20.482Z,97244.25
2024-05-09T05:05:57.133Z,97246.75
2024-05-09T05:08:33.573Z,97247.16
2024-05-09T05:11:10.043Z,97247.63
2024-05-09T05:13:40.146Z,97255.22
2024-05-09T05:16:08.745Z,97255.66
2024-05-09T05:18:36.174Z,97243.78
2024-05-09T05:21:03.630Z,97240.63
2024-05-09T05:23:31.016Z,97244.84
2024-05-09T05:25:58.377Z,97254.50
2024-05-09T05:28:25.747Z,97248.22
2024-05-09T05:30:53.029Z,97250.06
2024-05-09T05:33:20.813Z,97257.41
2024-05-09T05:35:48.357Z,97267.06
2024-05-09T05:38:27.506Z,97266.31
2024-05-09T05:40:55.754Z,97271.34
2024-05-09T05:43:32.124Z,97275.13
2024-05-09T05:45:59.428Z,97266.44
2024-05-09T05:48:35.767Z,97265.72
2024-05-09T05:51:07.148Z,97269.97
2024-05-09T05:53:34.807Z,97279.56
2024-05-09T05:56:02.196Z,97276.00
2024-05-09T05:58:29.552Z,97282.66
2024-05-09T06:00:56.757Z,97283.44
2024-05-09T06:03:33.036Z,97279.16
2024-05-09T06:06:09.295Z,97281.66
2024-05-09T06:08:36.541Z,97285.16
2024-05-09T06:11:04.129Z,97282.22
2024-05-09T06:13:31.360Z,97280.16
2024-05-09T06:15:58.514Z,97269.59
2024-05-09T06:18:26.149Z,97269.56
2024-05-09T06:21:11.849Z,97262.38
2024-05-09T06:23:39.240Z,97248.00
2024-05-09T06:26:06.528Z,97261.13
2024-05-09T06:28:42.792Z,97257.22
2024-05-09T06:33:45.553Z,97261.72
2024-05-09T06:36:12.810Z,97263.81
2024-05-09T06:38:40.165Z,97267.44
2024-05-09T06:43:49.521Z,97259.56
2024-05-09T06:46:25.766Z,97269.84
2024-05-09T06:49:02.202Z,97269.81
2024-05-09T06:51:29.701Z,97267.56
2024-05-09T07:04:38.299Z,97272.13
2024-05-09T07:07:05.125Z,97269.72
2024-05-09T07:14:41.667Z,97270.41
2024-05-09T07:17:08.641Z,97260.53
2024-05-09T07:19:35.642Z,97271.13
2024-05-09T07:30:00.654Z,97244.34
2024-05-09T07:53:48.157Z,97230.91
2024-05-09T07:56:19.741Z,97226.03
2024-05-09T08:01:30.813Z,97214.25
2024-05-09T08:31:45.777Z,97196.97
2024-05-09T08:34:13.140Z,97186.31
2024-05-09T08:36:49.373Z,97194.44
2024-05-09T08:42:21.690Z,97202.84
2024-05-09T08:44:48.956Z,97205.97
2024-05-09T08:47:16.137Z,97199.13
2024-05-09T08:49:57.336Z,97202.34
2024-05-09T08:52:33.613Z,97192.50
2024-05-09T08:55:00.862Z,97199.78
2024-05-09T08:57:28.146Z,97199.84
2024-05-09T09:02:40.927Z,97199.19
2024-05-09T09:10:31.067Z,97194.16
2024-05-09T09:12:59.560Z,97201.72
2024-05-09T09:18:14.938Z,97198.66
2024-05-09T09:20:51.259Z,97192.66
2024-05-09T09:23:27.446Z,97201.22
2024-05-09T09:26:03.618Z,97202.28
2024-05-09T09:31:04.373Z,97199.38
2024-05-09T09:33:40.807Z,97197.88
2024-05-09T09:36:09.638Z,97192.75
2024-05-09T09:38:38.649Z,97184.66
2024-05-09T09:41:06.133Z,97193.13
2024-05-09T09:43:42.367Z,97196.13
2024-05-09T09:49:01.687Z,97188.59
2024-05-09T09:51:38.022Z,97200.69
2024-05-09T09:59:31.601Z,97192.94
2024-05-09T10:01:59.077Z,97184.34
2024-05-09T10:04:26.491Z,97186.03
2024-05-09T10:07:02.865Z,97184.28
2024-05-09T10:09:30.218Z,97183.16
2024-05-09T10:14:28.309Z,97169.00
2024-05-09T10:17:04.553Z,97173.47
2024-05-09T10:19:32.114Z,97168.63
2024-05-09T10:21:59.352Z,97172.22
2024-05-09T10:24:26.474Z,97180.25
2024-05-09T10:26:53.870Z,97177.34
2024-05-09T10:29:21.065Z,97172.63
2024-05-09T10:31:48.441Z,97173.00
2024-05-09T10:34:15.765Z,97177.03
2024-05-09T10:36:43.232Z,97170.38
2024-05-09T10:39:10.448Z,97176.97
2024-05-09T10:41:46.644Z,97173.22
2024-05-09T10:44:13.944Z,97179.19
2024-05-09T10:46:50.149Z,97168.66
2024-05-09T10:49:26.494Z,97173.16
2024-05-09T10:51:53.946Z,97170.50
2024-05-09T10:54:21.274Z,97163.22
2024-05-09T10:56:57.462Z,97174.25
2024-05-09T10:59:24.613Z,97167.75
2024-05-09T11:01:51.830Z,97167.41
2024-05-09T11:04:19.244Z,97165.00
2024-05-09T11:06:46.683Z,97161.66
2024-05-09T11:09:22.900Z,97171.88
2024-05-09T11:11:50.100Z,97169.50
2024-05-09T11:14:17.442Z,97161.59
2024-05-09T11:16:53.654Z,97157.00
2024-05-09T11:19:21.112Z,97155.28
2024-05-09T11:21:57.432Z,97155.75
2024-05-09T11:24:33.646Z,97158.75
2024-05-09T11:27:09.871Z,97155.34
2024-05-09T11:29:46.023Z,97154.59
2024-05-09T11:32:13.230Z,97148.00
2024-05-09T11:34:49.397Z,97156.28
2024-05-09T11:37:25.687Z,97154.81
2024-05-09T11:40:01.952Z,97162.88
2024-05-09T11:42:38.213Z,97156.56
2024-05-09T11:45:05.489Z,97150.66
2024-05-09T11:47:32.714Z,97159.91
2024-05-09T11:50:00.126Z,97165.75
2024-05-09T11:52:36.353Z,97147.19
2024-05-09T11:55:03.554Z,97143.81
2024-05-09T11:57:39.829Z,97143.81
2024-05-09T12:00:09.403Z,97149.16
2024-05-09T12:02:36.917Z,97145.66
2024-05-09T12:05:04.351Z,97148.16
2024-05-09T12:07:40.623Z,97151.94
2024-05-09T12:10:11.963Z,97153.31
2024-05-09T12:12:52.787Z,97135.81
2024-05-09T12:15:19.958Z,97147.47
2024-05-09T12:17:49.544Z,97131.69
2024-05-09T12:20:25.776Z,97131.19
2024-05-09T12:23:00.411Z,97122.56
2024-05-09T12:25:27.669Z,97118.88
2024-05-09T12:28:03.937Z,97117.13
2024-05-09T12:30:36.829Z,97118.16
2024-05-09T12:33:06.929Z,97123.84
2024-05-09T12:35:45.491Z,97112.94
2024-05-09T12:38:23.526Z,97118.47
2024-05-09T12:40:50.832Z,97132.47
2024-05-09T12:43:27.294Z,97124.03
2024-05-09T12:45:54.681Z,97116.44
2024-05-09T12:48:21.985Z,97120.38
2024-05-09T12:50:49.598Z,97130.13
2024-05-09T12:53:16.980Z,97116.41
2024-05-09T12:55:57.046Z,97111.25
2024-05-09T12:58:36.638Z,97099.97
2024-05-09T13:01:04.116Z,97107.19
2024-05-09T13:03:31.463Z,97111.47
2024-05-09T13:05:58.900Z,97098.41
2024-05-09T13:08:26.194Z,97086.03
2024-05-09T13:10:53.418Z,97099.66
2024-05-09T13:13:20.734Z,97097.25
2024-05-09T13:15:48.191Z,97094.94
2024-05-09T13:18:15.554Z,97105.66
2024-05-09T13:20:42.907Z,97078.75
2024-05-09T13:23:19.118Z,97090.84
2024-05-09T13:25:46.509Z,97095.34
2024-05-09T13:28:13.910Z,97082.97
2024-05-09T13:30:42.331Z,97085.31
2024-05-09T13:33:19.014Z,97088.09
2024-05-09T13:35:49.749Z,97090.16
2024-05-09T13:38:18.501Z,97090.81
2024-05-09T13:40:55.010Z,97075.84
2024-05-09T13:43:31.256Z,97077.63
2024-05-09T13:45:58.636Z,97074.47
2024-05-09T13:48:35.061Z,97071.63
2024-05-09T13:51:02.288Z,97073.81
2024-05-09T13:53:29.428Z,97072.22
2024-05-09T13:55:56.617Z,97088.13
2024-05-09T13:58:24.115Z,97059.06
2024-05-09T14:00:51.596Z,97073.94
2024-05-09T14:03:20.354Z,97064.19
2024-05-09T14:08:23.632Z,97057.00
2024-05-09T14:11:30.910Z,97061.81
2024-05-09T14:14:29.799Z,97062.94
2024-05-09T14:17:06.652Z,97061.94
2024-05-09T14:19:33.791Z,97061.66
2024-05-09T14:22:03.211Z,97055.84
2024-05-09T14:24:39.664Z,97056.22
2024-05-09T14:27:15.890Z,97062.50
2024-05-09T14:29:52.085Z,97057.13
2024-05-09T14:32:28.366Z,97052.69
2024-05-09T14:35:04.767Z,97045.97
2024-05-09T14:37:32.490Z,97047.78
2024-05-09T14:40:17.873Z,97049.91
2024-05-09T14:42:53.570Z,97052.19
2024-05-09T14:45:20.785Z,97045.13
2024-05-09T14:47:48.248Z,97042.75
2024-05-09T14:50:34.452Z,97033.59
2024-05-09T14:53:14.174Z,97031.59
2024-05-09T14:55:42.928Z,97029.59
2024-05-09T14:58:20.242Z,97029.78
2024-05-09T15:00:50.392Z,97028.97
2024-05-09T15:03:19.222Z,97035.78
2024-05-09T15:05:46.825Z,97023.31
2024-05-09T15:08:23.001Z,97035.78
2024-05-09T15:10:59.398Z,97030.19
2024-05-09T15:16:08.277Z,97024.94
2024-05-09T15:18:35.594Z,97019.13
2024-05-09T15:23:38.398Z,97020.34
2024-05-09T15:28:41.051Z,97010.91
2024-05-09T15:31:08.370Z,97016.19
2024-05-09T15:33:35.817Z,97009.00
2024-05-09T15:36:12.053Z,97015.28
2024-05-09T15:38:39.264Z,97021.06
2024-05-09T15:41:06.544Z,97021.25
2024-05-09T15:43:33.460Z,97016.72
2024-05-09T15:46:00.385Z,97018.88
2024-05-09T15:48:27.347Z,97005.59
2024-05-09T15:50:54.254Z,97020.44
2024-05-09T15:53:21.143Z,97015.03
2024-05-09T15:58:22.404Z,97012.34
2024-05-09T16:00:51.493Z,97011.44
2024-05-09T16:03:19.020Z,97007.09
2024-05-09T16:05:47.920Z,97012.28
2024-05-09T16:08:15.271Z,97008.84
2024-05-09T16:10:44.234Z,97003.97
2024-05-09T16:13:12.196Z,97001.88
2024-05-09T16:15:39.251Z,97004.28
2024-05-09T16:18:06.187Z,97005.59
2024-05-09T16:20:39.077Z,97004.91
2024-05-09T16:23:09.022Z,97008.63
2024-05-09T16:25:36.203Z,97005.50
2024-05-09T16:28:04.893Z,97000.28
2024-05-09T16:30:35.690Z,96994.78
2024-05-09T16:35:35.970Z,96993.75
2024-05-09T16:38:02.839Z,97000.13
2024-05-09T16:40:36.954Z,97001.31
2024-05-09T16:43:07.833Z,96988.97
2024-05-09T16:45:44.613Z,96998.88
2024-05-09T16:48:21.175Z,96993.94
2024-05-09T16:50:48.356Z,96992.22
2024-05-09T16:53:15.601Z,96987.81
2024-05-09T16:55:42.767Z,96997.19
2024-05-09T17:06:48.630Z,96983.06
2024-05-09T17:09:19.645Z,96979.06
2024-05-09T17:11:56.333Z,96986.63
2024-05-09T17:17:12.648Z,96987.56
2024-05-09T17:22:31.143Z,96984.56
2024-05-09T17:27:38.719Z,96984.59
2024-05-09T17:30:06.406Z,96982.25
2024-05-09T17:32:35.035Z,96987.69
2024-05-09T17:35:02.287Z,96991.50
2024-05-09T17:37:29.502Z,96980.63
2024-05-09T17:39:56.439Z,96981.78
2024-05-09T17:42:25.240Z,96986.16
2024-05-09T17:44:52.079Z,96986.06
2024-05-09T17:50:00.808Z,96985.94
2024-05-09T17:52:27.657Z,96984.00
2024-05-09T17:54:54.464Z,96987.28
2024-05-09T17:57:21.307Z,96982.25
2024-05-09T17:59:48.175Z,96991.13
2024-05-09T18:02:15.123Z,96991.13
2024-05-09T18:04:42.039Z,96993.13
2024-05-09T18:07:09.421Z,96986.03
2024-05-09T18:09:36.331Z,96990.44
2024-05-09T18:12:03.248Z,96985.47
2024-05-09T18:14:30.036Z,96989.38
2024-05-09T18:16:57.568Z,96988.56
2024-05-09T18:22:01.402Z,96994.13
2024-05-09T18:24:28.706Z,96991.84
2024-05-09T18:26:55.520Z,96992.06
2024-05-09T18:29:22.538Z,96995.56
2024-05-09T18:31:49.494Z,96988.03
2024-05-09T18:34:16.500Z,96993.81
2024-05-09T18:36:43.511Z,96987.00
2024-05-09T18:39:10.314Z,96988.63
2024-05-09T18:41:37.090Z,96988.50
2024-05-09T18:44:03.956Z,96989.84
2024-05-09T18:46:30.951Z,96986.19
2024-05-09T18:48:57.961Z,96991.44
2024-05-09T18:51:24.907Z,96999.53
2024-05-09T18:53:51.680Z,96996.06
2024-05-09T18:56:18.465Z,96988.81
2024-05-09T18:58:45.277Z,96997.28
2024-05-09T19:01:12.168Z,96998.75
2024-05-09T19:03:39.263Z,96993.09
2024-05-09T19:06:06.297Z,96991.66
2024-05-09T19:08:33.164Z,97003.13
2024-05-09T19:11:00.015Z,97002.53
2024-05-09T19:13:27.012Z,97014.63
2024-05-09T19:15:54.010Z,97006.53
2024-05-09T19:18:20.937Z,97020.06
2024-05-09T19:20:47.912Z,97022.56
2024-05-09T19:23:14.813Z,97017.06
2024-05-09T19:25:42.017Z,97020.00
2024-05-09T19:28:18.372Z,97015.53
2024-05-09T19:30:54.633Z,97027.09
2024-05-09T19:33:21.476Z,97032.81
2024-05-09T19:35:48.340Z,97036.63
2024-05-09T19:38:15.116Z,97027.84
2024-05-09T19:40:42.115Z,97033.69
2024-05-09T19:43:09.213Z,97040.69
2024-05-09T19:45:36.761Z,97042.00
2024-05-09T19:48:04.135Z,97041.50
2024-05-09T19:50:37.898Z,97044.50
2024-05-09T19:53:09.651Z,97042.50
2024-05-09T19:55:36.589Z,97042.09
2024-05-09T19:58:05.343Z,97047.59
2024-05-09T20:00:36.214Z,97043.56
2024-05-09T20:03:04.999Z,97050.56
2024-05-09T20:05:31.923Z,97046.78
2024-05-09T20:07:58.891Z,97044.19
2024-05-09T20:10:31.453Z,97052.72
2024-05-09T20:13:00.417Z,97044.81
2024-05-09T20:15:27.389Z,97046.41
2024-05-09T20:17:55.093Z,97046.84
2024-05-09T20:22:51.982Z,97055.53
2024-05-09T20:25:18.834Z,97055.56
2024-05-09T20:27:45.711Z,97055.75
2024-05-09T20:30:17.213Z,97061.63
2024-05-09T20:32:52.066Z,97061.03
2024-05-09T20:35:19.457Z,97062.06
2024-05-09T20:37:55.630Z,97064.91
2024-05-09T20:40:35.497Z,97065.09
2024-05-09T20:43:05.973Z,97066.13
2024-05-09T20:45:34.101Z,97064.88
2024-05-09T20:48:01.965Z,97058.38
2024-05-09T20:50:37.176Z,97057.94
2024-05-09T20:53:07.894Z,97051.44
2024-05-09T20:55:35.128Z,97051.66
2024-05-09T20:58:02.487Z,97049.47
2024-05-09T21:00:42.558Z,97055.94
2024-05-09T21:03:12.528Z,97048.41
2024-05-09T21:05:40.250Z,97051.09
2024-05-09T21:08:07.287Z,97050.09
2024-05-09T21:10:34.710Z,97053.13
2024-05-09T21:13:03.059Z,97050.47
2024-05-09T21:15:30.668Z,97061.63
2024-05-09T21:17:57.529Z,97049.41
2024-05-09T21:20:30.444Z,97054.25
2024-05-09T21:22:58.944Z,97056.31
2024-05-09T21:25:25.971Z,97051.66
2024-05-09T21:27:53.049Z,97052.22
2024-05-09T21:30:31.306Z,97050.63
2024-05-09T21:33:05.837Z,97045.16
2024-05-09T21:35:36.333Z,97051.44
2024-05-09T21:38:03.075Z,97053.03
2024-05-09T21:40:34.424Z,97058.41
2024-05-09T21:43:03.076Z,97045.41
2024-05-09T21:45:30.108Z,97058.41
2024-05-09T21:50:39.187Z,97047.88
2024-05-09T21:53:08.276Z,97045.31
2024-05-09T21:55:35.147Z,97059.56
2024-05-09T21:58:02.277Z,97050.00
2024-05-09T22:00:36.035Z,97054.53
2024-05-09T22:03:05.707Z,97054.22
2024-05-09T22:05:33.385Z,97045.88
2024-05-09T22:08:09.693Z,97044.44
2024-05-09T22:10:37.560Z,97043.69
2024-05-09T22:13:14.043Z,97047.31
2024-05-09T22:15:41.554Z,97047.28
2024-05-09T22:18:11.027Z,97042.81
2024-05-09T22:20:39.817Z,97036.72
2024-05-09T22:23:16.201Z,97037.50
2024-05-09T22:25:52.447Z,97036.91
2024-05-09T22:28:20.015Z,97041.03
2024-05-09T22:30:47.808Z,97040.16
2024-05-09T22:33:15.367Z,97045.47
2024-05-09T22:35:51.779Z,97042.25
2024-05-09T22:38:27.938Z,97038.66
2024-05-09T22:40:55.314Z,97047.53
2024-05-09T22:43:31.664Z,97048.53
2024-05-09T22:45:59.129Z,97053.38
2024-05-09T22:48:26.686Z,97048.72
2024-05-09T22:51:03.044Z,97044.91
2024-05-09T22:53:30.195Z,97041.84
2024-05-09T22:55:57.387Z,97047.91
2024-05-09T22:58:24.820Z,97055.00
2024-05-09T23:00:52.275Z,97050.59
2024-05-09T23:03:28.768Z,97050.38
2024-05-09T23:06:05.062Z,97049.34
2024-05-09T23:08:32.400Z,97050.34
2024-05-09T23:10:59.856Z,97049.09
2024-05-09T23:13:36.069Z,97048.31
2024-05-09T23:16:12.264Z,97046.72
2024-05-09T23:18:39.720Z,97047.44
2024-05-09T23:21:07.108Z,97043.06
2024-05-09T23:23:43.283Z,97041.63
2024-05-09T23:26:19.397Z,97038.06
2024-05-09T23:28:46.598Z,97038.22
2024-05-09T23:31:22.803Z,97031.25
2024-05-09T23:33:50.210Z,97038.78
2024-05-09T23:36:17.450Z,97036.31
2024-05-09T23:38:44.759Z,97039.78
2024-05-09T23:41:12.035Z,97041.81
2024-05-09T23:43:39.313Z,97046.69
2024-05-09T23:46:06.616Z,97037.34
2024-05-09T23:48:42.964Z,97040.31
2024-05-09T23:51:10.315Z,97044.34
2024-05-09T23:53:37.606Z,97033.19
2024-05-09T23:56:04.877Z,97041.03
2024-05-09T23:58:32.191Z,97033.53
